createdAt,value
2023-10-07T00:04:33.287Z,101678.25
2023-10-07T00:09:34.758Z,101681.31
2023-10-07T00:14:36.221Z,101686.47
2023-10-07T00:19:37.817Z,101681.97
2023-10-07T00:24:39.250Z,101688.75
2023-10-07T00:29:40.696Z,101678.25
2023-10-07T00:34:42.235Z,101695.84
2023-10-07T00:39:43.698Z,101692.19
2023-10-07T00:44:45.229Z,101699.75
2023-10-07T00:49:47.263Z,101692.78
2023-10-07T00:54:49.368Z,101679.03
2023-10-07T00:59:50.961Z,101677.56
2023-10-07T01:04:53.650Z,101674.97
2023-10-07T01:09:55.748Z,101684.31
2023-10-07T01:14:57.207Z,101689.44
2023-10-07T01:19:59.175Z,101675.09
2023-10-07T01:25:00.631Z,101668.31
2023-10-07T01:30:02.082Z,101655.47
2023-10-07T01:35:03.635Z,101667.06
2023-10-07T01:40:05.395Z,101666.09
2023-10-07T01:45:07.616Z,101646.84
2023-10-07T01:50:09.358Z,101647.28
2023-10-07T01:55:10.920Z,101643.84
2023-10-07T02:00:13.333Z,101655.00
2023-10-07T02:05:14.907Z,101642.28
2023-10-07T02:10:16.453Z,101648.41
2023-10-07T02:15:17.953Z,101651.72
2023-10-07T02:20:19.466Z,101644.13
2023-10-07T02:25:21.031Z,101631.25
2023-10-07T02:30:22.651Z,101635.53
2023-10-07T02:35:24.461Z,101650.09
2023-10-07T02:40:25.958Z,101648.59
2023-10-07T02:45:28.051Z,101651.84
2023-10-07T02:50:29.534Z,101652.78
2023-10-07T02:55:31.036Z,101650.63
2023-10-07T03:00:32.526Z,101657.03
2023-10-07T03:05:33.981Z,101637.75
2023-10-07T03:10:35.459Z,101644.88
2023-10-07T03:15:39.302Z,101645.00
2023-10-07T03:20:40.790Z,101643.78
2023-10-07T03:25:42.832Z,101649.53
2023-10-07T03:30:44.809Z,101645.56
2023-10-07T03:35:46.304Z,101657.72
2023-10-07T03:40:47.745Z,101662.38
2023-10-07T03:45:49.370Z,101654.09
2023-10-07T03:50:54.498Z,101662.56
2023-10-07T03:55:56.001Z,101644.16
2023-10-07T04:00:57.445Z,101642.97
2023-10-07T04:05:58.901Z,101650.16
2023-10-07T04:11:00.413Z,101637.28
2023-10-07T04:16:01.916Z,101646.13
2023-10-07T04:21:03.424Z,101647.06
2023-10-07T04:26:04.932Z,101640.63
2023-10-07T04:31:06.508Z,101631.91
2023-10-07T04:36:09.164Z,101630.09
2023-10-07T04:41:10.658Z,101621.19
2023-10-07T04:46:12.142Z,101628.19
2023-10-07T04:51:13.637Z,101631.81
2023-10-07T04:56:15.109Z,101624.03
2023-10-07T05:01:16.573Z,101610.50
2023-10-07T05:06:18.038Z,101613.41
2023-10-07T05:11:19.510Z,101618.66
2023-10-07T05:16:21.001Z,101614.94
2023-10-07T05:21:22.428Z,101616.28
2023-10-07T05:26:23.884Z,101615.00
2023-10-07T05:31:25.402Z,101604.53
2023-10-07T05:36:27.563Z,101610.06
2023-10-07T05:41:28.997Z,101599.78
2023-10-07T05:46:30.444Z,101607.19
2023-10-07T05:51:32.040Z,101609.97
2023-10-07T05:56:33.495Z,101623.47
2023-10-07T06:01:35.419Z,101603.81
2023-10-07T06:06:36.995Z,101603.09
2023-10-07T06:11:38.480Z,101605.63
2023-10-07T06:16:40.055Z,101608.44
2023-10-07T06:21:41.600Z,101621.94
2023-10-07T06:26:43.023Z,101626.97
2023-10-07T06:31:44.515Z,101639.47
2023-10-07T06:36:46.018Z,101646.66
2023-10-07T06:41:47.480Z,101646.03
2023-10-07T06:46:49.015Z,101647.47
2023-10-07T06:51:54.526Z,101657.31
2023-10-07T06:56:56.745Z,101672.50
2023-10-07T07:01:58.825Z,101667.66
2023-10-07T07:07:00.487Z,101668.75
2023-10-07T07:12:03.074Z,101673.03
2023-10-07T07:17:05.398Z,101679.38
2023-10-07T07:22:06.846Z,101684.09
2023-10-07T07:27:08.335Z,101677.25
2023-10-07T07:32:09.820Z,101689.97
2023-10-07T07:37:11.266Z,101694.72
2023-10-07T07:42:12.716Z,101692.81
2023-10-07T07:47:14.241Z,101687.38
2023-10-07T07:52:15.725Z,101688.78
2023-10-07T07:57:17.180Z,101683.75
2023-10-07T08:02:18.797Z,101684.03
2023-10-07T08:07:20.530Z,101685.78
2023-10-07T08:12:23.349Z,101671.72
2023-10-07T08:17:25.691Z,101693.69
2023-10-07T08:22:27.277Z,101694.06
2023-10-07T08:27:28.739Z,101680.78
2023-10-07T08:32:30.253Z,101684.97
2023-10-07T08:37:31.754Z,101697.63
2023-10-07T08:42:33.230Z,101690.19
2023-10-07T08:47:34.884Z,101704.44
2023-10-07T08:52:36.657Z,101699.59
2023-10-07T08:57:38.174Z,101686.22
2023-10-07T09:02:39.795Z,101684.28
2023-10-07T09:07:41.315Z,101690.34
2023-10-07T09:12:43.172Z,101692.75
2023-10-07T09:17:44.646Z,101688.47
2023-10-07T09:22:46.206Z,101689.28
2023-10-07T09:27:48.183Z,101692.63
2023-10-07T09:32:49.864Z,101694.63
2023-10-07T09:37:51.962Z,101692.94
2023-10-07T09:42:53.432Z,101702.97
2023-10-07T09:47:55.880Z,101692.19
2023-10-07T09:53:12.573Z,101697.91
2023-10-07T09:58:24.000Z,101698.47
2023-10-07T10:03:44.392Z,101702.41
2023-10-07T10:08:50.692Z,101695.13
2023-10-07T10:13:52.591Z,101698.56
2023-10-07T10:18:57.686Z,101680.56
2023-10-07T10:23:59.176Z,101687.47
2023-10-07T10:29:01.711Z,101670.78
2023-10-07T10:34:03.742Z,101662.16
2023-10-07T10:39:25.484Z,101670.22
2023-10-07T10:44:38.543Z,101661.47
2023-10-07T10:49:39.982Z,101670.06
2023-10-07T10:54:41.499Z,101655.72
2023-10-07T10:59:43.734Z,101659.25
2023-10-07T11:04:49.783Z,101653.09
2023-10-07T11:09:52.165Z,101664.72
2023-10-07T11:15:01.525Z,101670.09
2023-10-07T11:20:03.137Z,101660.16
2023-10-07T11:25:04.834Z,101647.22
2023-10-07T11:30:06.597Z,101649.94
2023-10-07T11:35:20.973Z,101637.94
2023-10-07T11:40:22.486Z,101642.66
2023-10-07T11:45:24.063Z,101636.47
2023-10-07T11:50:25.737Z,101636.78
2023-10-07T11:55:27.265Z,101636.00
2023-10-07T12:00:29.220Z,101634.03
2023-10-07T12:05:30.723Z,101621.41
2023-10-07T12:10:33.350Z,101621.88
2023-10-07T12:15:34.840Z,101620.03
2023-10-07T12:20:37.214Z,101604.66
2023-10-07T12:25:38.686Z,101605.75
2023-10-07T12:30:40.223Z,101611.38
2023-10-07T12:35:41.683Z,101617.09
2023-10-07T12:40:43.126Z,101614.78
2023-10-07T12:45:44.692Z,101608.13
2023-10-07T12:50:46.115Z,101617.06
2023-10-07T12:55:47.731Z,101618.53
2023-10-07T13:00:49.297Z,101602.03
2023-10-07T13:05:50.901Z,101607.91
2023-10-07T13:10:52.447Z,101614.66
2023-10-07T13:15:53.912Z,101609.56
2023-10-07T13:20:55.410Z,101619.53
2023-10-07T13:25:56.898Z,101609.03
2023-10-07T13:30:58.459Z,101613.84
2023-10-07T13:36:02.469Z,101625.69
2023-10-07T13:41:06.948Z,101618.72
2023-10-07T13:46:12.155Z,101615.50
2023-10-07T13:51:13.698Z,101611.16
2023-10-07T13:56:15.244Z,101605.03
2023-10-07T14:01:16.878Z,101614.91
2023-10-07T14:06:18.360Z,101609.38
2023-10-07T14:11:19.929Z,101600.63
2023-10-07T14:16:21.494Z,101602.28
2023-10-07T14:21:23.028Z,101596.94
2023-10-07T14:26:24.619Z,101590.63
2023-10-07T14:31:26.371Z,101591.06
2023-10-07T14:36:27.891Z,101587.53
2023-10-07T14:41:29.445Z,101563.56
2023-10-07T14:46:31.592Z,101549.56
2023-10-07T14:51:33.063Z,101530.22
2023-10-07T14:56:34.520Z,101525.69
2023-10-07T15:01:36.127Z,101520.81
2023-10-07T15:06:37.658Z,101512.78
2023-10-07T15:11:39.101Z,101520.56
2023-10-07T15:16:40.639Z,101513.84
2023-10-07T15:21:42.435Z,101518.63
2023-10-07T15:26:43.894Z,101530.97
2023-10-07T15:31:45.452Z,101542.47
2023-10-07T15:36:46.892Z,101546.53
2023-10-07T15:41:48.473Z,101543.63
2023-10-07T15:46:49.933Z,101540.69
2023-10-07T15:51:51.355Z,101531.34
2023-10-07T15:56:52.782Z,101545.09
2023-10-07T16:01:54.364Z,101544.84
2023-10-07T16:06:55.974Z,101547.25
2023-10-07T16:11:57.380Z,101561.13
2023-10-07T16:16:58.984Z,101566.19
2023-10-07T16:22:00.530Z,101576.47
2023-10-07T16:27:02.135Z,101585.75
2023-10-07T16:32:03.857Z,101595.69
2023-10-07T16:37:05.378Z,101592.00
2023-10-07T16:42:06.853Z,101594.75
2023-10-07T16:47:08.472Z,101590.91
2023-10-07T16:52:09.967Z,101582.94
2023-10-07T16:57:11.566Z,101574.47
2023-10-07T17:02:13.877Z,101555.06
2023-10-07T17:07:15.454Z,101552.72
2023-10-07T17:12:16.903Z,101559.38
2023-10-07T17:17:18.473Z,101559.53
2023-10-07T17:22:19.993Z,101551.72
2023-10-07T17:27:21.421Z,101558.69
2023-10-07T17:32:22.930Z,101573.28
2023-10-07T17:37:24.419Z,101597.00
2023-10-07T17:42:25.919Z,101591.72
2023-10-07T17:47:27.507Z,101586.47
2023-10-07T17:52:28.974Z,101588.66
2023-10-07T17:57:31.487Z,101589.72
2023-10-07T18:02:33.544Z,101606.78
2023-10-07T18:07:35.224Z,101609.75
2023-10-07T18:12:36.687Z,101634.25
2023-10-07T18:17:38.291Z,101635.69
2023-10-07T18:22:43.434Z,101625.97
2023-10-07T18:27:45.136Z,101593.63
2023-10-07T18:32:46.904Z,101592.47
2023-10-07T18:37:48.418Z,101591.19
2023-10-07T18:42:49.868Z,101605.47
2023-10-07T18:47:51.512Z,101609.47
2023-10-07T18:52:53.033Z,101612.06
2023-10-07T18:57:54.507Z,101616.72
2023-10-07T19:02:56.015Z,101614.75
2023-10-07T19:07:57.669Z,101627.81
2023-10-07T19:12:59.181Z,101621.53
2023-10-07T19:18:00.656Z,101614.09
2023-10-07T19:23:02.299Z,101599.28
2023-10-07T19:28:03.919Z,101604.69
2023-10-07T19:33:05.506Z,101597.53
2023-10-07T19:38:07.362Z,101594.03
2023-10-07T19:43:08.829Z,101603.59
2023-10-07T19:48:10.368Z,101609.47
2023-10-07T19:53:11.960Z,101609.56
2023-10-07T19:58:13.503Z,101600.38
2023-10-07T20:03:15.090Z,101604.25
2023-10-07T20:08:16.644Z,101605.03
2023-10-07T20:13:18.105Z,101614.78
2023-10-07T20:18:19.623Z,101632.47
2023-10-07T20:23:21.252Z,101629.63
2023-10-07T20:28:22.804Z,101630.00
2023-10-07T20:33:24.335Z,101630.75
2023-10-07T20:38:25.859Z,101634.44
2023-10-07T20:43:27.300Z,101617.41
2023-10-07T20:48:29.398Z,101621.66
2023-10-07T20:53:34.494Z,101624.63
2023-10-07T20:58:36.079Z,101625.31
2023-10-07T21:03:37.820Z,101631.41
2023-10-07T21:08:39.478Z,101627.47
2023-10-07T21:13:41.372Z,101638.91
2023-10-07T21:18:42.832Z,101653.44
2023-10-07T21:23:44.587Z,101689.31
2023-10-07T21:28:46.114Z,101694.56
2023-10-07T21:33:47.580Z,101692.19
2023-10-07T21:38:49.040Z,101683.44
2023-10-07T21:43:50.481Z,101673.59
2023-10-07T21:48:52.006Z,101664.34
2023-10-07T21:53:53.461Z,101679.28
2023-10-07T21:58:54.890Z,101666.97
2023-10-07T22:03:56.384Z,101663.91
2023-10-07T22:08:57.940Z,101655.44
2023-10-07T22:13:59.414Z,101664.78
2023-10-07T22:19:00.912Z,101673.09
2023-10-07T22:24:02.426Z,101669.97
2023-10-07T22:29:04.613Z,101671.59
2023-10-07T22:34:06.097Z,101671.28
2023-10-07T22:39:07.529Z,101668.28
2023-10-07T22:44:09.048Z,101669.69
2023-10-07T22:49:10.758Z,101681.31
2023-10-07T22:54:12.442Z,101688.28
2023-10-07T22:59:14.213Z,101674.91
2023-10-07T23:04:16.675Z,101673.66
2023-10-07T23:09:18.371Z,101671.44
2023-10-07T23:14:21.055Z,101659.81
2023-10-07T23:19:24.043Z,101664.25
2023-10-07T23:24:25.532Z,101677.22
2023-10-07T23:29:27.116Z,101671.19
2023-10-07T23:34:28.702Z,101664.94
2023-10-07T23:39:30.573Z,101654.38
2023-10-07T23:44:32.893Z,101669.47
2023-10-07T23:49:34.353Z,101668.50
2023-10-07T23:54:35.884Z,101680.13
2023-10-07T23:59:37.448Z,101693.38
